Flugplatz Illesheim (ETIK)

Hier findest Du alle Informationen zum Flugplatz Illesheim (ETIK).

Informationen für Piloten zum Flugplatz Illesheim

Hier findest Du alle relevanten Informationen, die Du als Pilot benötigst, um Illesheim anzufliegen.

Flugplatz: Illesheim ICAO-Code: ETIK
Frequenz Turm: - GAFOR Gebiet: -
Frequenz Ground: - Mogas: nein
Platzrunde: - Landegebühr: -
Platzhöhe: Sunrise: 06:58 Uhr UTC
Pisten: Sunset: 16:03 Uhr UTC

Flugwetter am Flugplatz Illesheim

Die METAR Information stammen aus EDDN (50.33 km entfernt).

METAR Code:
2020/01/21 09:20
EDDN 210920Z 13004KT 100V160 CAVOK M01/M03 Q1042 NOSIG

Flugschulen am Flugplatz Illesheim

Am Flugplatz Illesheim gibt es leider keine Flugschule.

Benachbarte Flugplätze und Flugschulen

Es gibt 19 weitere Flugplätze in einem Umkreis von 50 km um den Flugplatz Illesheim.

Jetzt anmelden

Passwort vergessen

Umfrage Archiv

Lasst Ihr Euch bei Überlandflügen von FIS begleiten?

Ja, immer!
43.8 %
Ja, unregelmäßig!
29.6 %
Ja, aber nur selten!
17.3 %
Nein, nie!
9.3 %
Stimmen: 162 | Diskussion
Anzeige: Roland Aircraft
Statistik Alle Mitglieder

Aktuell sind 28 Besucher online, davon 1 Mitglied und 27 Gäste.


Mitglieder online:
mikemike 

Anzeige: VFR Sprechfunk Simulator


Anzeige: Pocket FMS